sensor_id;sensor_type;location;lat;lon;timestamp;pressure;altitude;pressure_sealevel;temperature;humidity
55675;BME280;41562;44.330;23.802;2023-04-26T00:02:50;99122.44;;;10.61;100.00
55675;BME280;41562;44.330;23.802;2023-04-26T00:05:43;99122.81;;;10.68;100.00
55675;BME280;41562;44.330;23.802;2023-04-26T00:08:35;99130.81;;;10.81;100.00
55675;BME280;41562;44.330;23.802;2023-04-26T00:11:27;99128.47;;;10.66;100.00
55675;BME280;41562;44.330;23.802;2023-04-26T00:14:20;99134.31;;;10.55;100.00
55675;BME280;41562;44.330;23.802;2023-04-26T00:17:11;99132.91;;;10.57;100.00
55675;BME280;41562;44.330;23.802;2023-04-26T00:20:04;99132.81;;;10.62;100.00
55675;BME280;41562;44.330;23.802;2023-04-26T00:22:56;99126.19;;;10.60;100.00
55675;BME280;41562;44.330;23.802;2023-04-26T00:25:49;99120.66;;;10.42;100.00
55675;BME280;41562;44.330;23.802;2023-04-26T00:28:40;99119.25;;;10.31;100.00
55675;BME280;41562;44.330;23.802;2023-04-26T00:31:32;99121.22;;;10.26;100.00
55675;BME280;41562;44.330;23.802;2023-04-26T00:34:31;99116.09;;;10.43;100.00
55675;BME280;41562;44.330;23.802;2023-04-26T00:37:23;99119.34;;;10.26;100.00
55675;BME280;41562;44.330;23.802;2023-04-26T00:40:14;99112.41;;;10.25;100.00
55675;BME280;41562;44.330;23.802;2023-04-26T00:43:07;99114.13;;;10.35;100.00
55675;BME280;41562;44.330;23.802;2023-04-26T00:45:59;99115.25;;;10.15;100.00
55675;BME280;41562;44.330;23.802;2023-04-26T00:48:51;99112.03;;;10.45;100.00
55675;BME280;41562;44.330;23.802;2023-04-26T00:51:44;99106.22;;;10.30;100.00
55675;BME280;41562;44.330;23.802;2023-04-26T00:54:36;99100.47;;;10.23;100.00
55675;BME280;41562;44.330;23.802;2023-04-26T00:57:27;99098.31;;;10.06;100.00
55675;BME280;41562;44.330;23.802;2023-04-26T01:00:19;99097.06;;;10.03;100.00
55675;BME280;41562;44.330;23.802;2023-04-26T01:03:12;99089.94;;;9.99;100.00
55675;BME280;41562;44.330;23.802;2023-04-26T01:06:04;99090.31;;;9.92;100.00
55675;BME280;41562;44.330;23.802;2023-04-26T01:08:56;99084.34;;;9.82;100.00
55675;BME280;41562;44.330;23.802;2023-04-26T01:11:51;99085.97;;;9.96;100.00
55675;BME280;41562;44.330;23.802;2023-04-26T01:14:43;99081.19;;;9.93;100.00
55675;BME280;41562;44.330;23.802;2023-04-26T01:17:11;99078.53;;;9.93;100.00
55675;BME280;41562;44.330;23.802;2023-04-26T01:19:49;99080.22;;;9.89;100.00
55675;BME280;41562;44.330;23.802;2023-04-26T01:22:17;99079.22;;;9.85;100.00
55675;BME280;41562;44.330;23.802;2023-04-26T01:24:47;99071.50;;;9.84;100.00
55675;BME280;41562;44.330;23.802;2023-04-26T01:27:16;99071.78;;;9.82;100.00
55675;BME280;41562;44.330;23.802;2023-04-26T01:29:43;99065.00;;;9.90;100.00
55675;BME280;41562;44.330;23.802;2023-04-26T01:32:10;99066.25;;;9.79;100.00
55675;BME280;41562;44.330;23.802;2023-04-26T01:34:38;99063.41;;;9.89;100.00
55675;BME280;41562;44.330;23.802;2023-04-26T01:37:05;99061.72;;;9.79;100.00
55675;BME280;41562;44.330;23.802;2023-04-26T01:39:32;99058.72;;;9.81;100.00
55675;BME280;41562;44.330;23.802;2023-04-26T01:42:00;99064.59;;;9.96;100.00
55675;BME280;41562;44.330;23.802;2023-04-26T01:44:27;99055.69;;;9.87;100.00
55675;BME280;41562;44.330;23.802;2023-04-26T01:46:54;99057.78;;;9.90;100.00
55675;BME280;41562;44.330;23.802;2023-04-26T01:49:22;99060.59;;;9.80;100.00
55675;BME280;41562;44.330;23.802;2023-04-26T01:51:49;99047.75;;;9.82;100.00
55675;BME280;41562;44.330;23.802;2023-04-26T01:54:16;99055.88;;;9.77;100.00
55675;BME280;41562;44.330;23.802;2023-04-26T01:56:43;99048.69;;;9.91;100.00
55675;BME280;41562;44.330;23.802;2023-04-26T01:59:11;99053.91;;;9.83;100.00
55675;BME280;41562;44.330;23.802;2023-04-26T02:01:40;99055.88;;;9.77;100.00
55675;BME280;41562;44.330;23.802;2023-04-26T02:04:08;99046.41;;;9.85;100.00
55675;BME280;41562;44.330;23.802;2023-04-26T02:06:36;99047.88;;;9.91;100.00
55675;BME280;41562;44.330;23.802;2023-04-26T02:09:04;99046.09;;;9.86;100.00
55675;BME280;41562;44.330;23.802;2023-04-26T02:11:31;99040.03;;;9.81;100.00
55675;BME280;41562;44.330;23.802;2023-04-26T02:13:58;99042.44;;;9.82;100.00
55675;BME280;41562;44.330;23.802;2023-04-26T02:16:26;99043.91;;;9.75;100.00
55675;BME280;41562;44.330;23.802;2023-04-26T02:18:53;99042.72;;;9.67;100.00
55675;BME280;41562;44.330;23.802;2023-04-26T02:21:21;99051.31;;;9.64;100.00
55675;BME280;41562;44.330;23.802;2023-04-26T02:23:48;99056.63;;;9.64;100.00
55675;BME280;41562;44.330;23.802;2023-04-26T02:26:15;99057.44;;;9.64;100.00
55675;BME280;41562;44.330;23.802;2023-04-26T02:28:43;99061.47;;;9.62;100.00
55675;BME280;41562;44.330;23.802;2023-04-26T02:31:10;99060.38;;;9.63;100.00
55675;BME280;41562;44.330;23.802;2023-04-26T02:33:37;99058.03;;;9.75;100.00
55675;BME280;41562;44.330;23.802;2023-04-26T02:36:05;99058.03;;;9.75;100.00
55675;BME280;41562;44.330;23.802;2023-04-26T02:38:33;99064.38;;;9.79;100.00
55675;BME280;41562;44.330;23.802;2023-04-26T02:41:01;99063.97;;;9.72;100.00
55675;BME280;41562;44.330;23.802;2023-04-26T02:43:29;99071.22;;;9.85;100.00
55675;BME280;41562;44.330;23.802;2023-04-26T02:45:56;99067.38;;;9.91;100.00
55675;BME280;41562;44.330;23.802;2023-04-26T02:48:23;99068.84;;;9.84;100.00
55675;BME280;41562;44.330;23.802;2023-04-26T02:50:51;99077.25;;;9.91;100.00
55675;BME280;41562;44.330;23.802;2023-04-26T02:53:18;99078.50;;;9.66;100.00
55675;BME280;41562;44.330;23.802;2023-04-26T02:55:45;99087.03;;;9.82;100.00
55675;BME280;41562;44.330;23.802;2023-04-26T02:58:12;99092.03;;;9.69;100.00
55675;BME280;41562;44.330;23.802;2023-04-26T03:00:47;99097.00;;;9.76;100.00
55675;BME280;41562;44.330;23.802;2023-04-26T03:03:14;99095.22;;;9.72;100.00
55675;BME280;41562;44.330;23.802;2023-04-26T03:05:42;99100.69;;;9.48;100.00
55675;BME280;41562;44.330;23.802;2023-04-26T03:08:09;99098.66;;;9.40;100.00
55675;BME280;41562;44.330;23.802;2023-04-26T03:10:37;99097.28;;;9.42;100.00
55675;BME280;41562;44.330;23.802;2023-04-26T03:13:05;99099.66;;;9.44;100.00
55675;BME280;41562;44.330;23.802;2023-04-26T03:15:32;99101.75;;;9.47;100.00
55675;BME280;41562;44.330;23.802;2023-04-26T03:17:59;99106.06;;;9.43;100.00
55675;BME280;41562;44.330;23.802;2023-04-26T03:20:27;99105.41;;;9.51;100.00
55675;BME280;41562;44.330;23.802;2023-04-26T03:22:54;99101.69;;;9.52;100.00
55675;BME280;41562;44.330;23.802;2023-04-26T03:25:21;99106.50;;;9.50;100.00
55675;BME280;41562;44.330;23.802;2023-04-26T03:27:49;99101.06;;;9.41;100.00
55675;BME280;41562;44.330;23.802;2023-04-26T03:30:16;99108.97;;;9.46;100.00
55675;BME280;41562;44.330;23.802;2023-04-26T03:32:43;99106.03;;;9.48;100.00
55675;BME280;41562;44.330;23.802;2023-04-26T03:35:11;99104.69;;;12.03;100.00
55675;BME280;41562;44.330;23.802;2023-04-26T03:37:38;99109.41;;;13.63;88.95
55675;BME280;41562;44.330;23.802;2023-04-26T03:40:07;99120.47;;;13.70;88.66
55675;BME280;41562;44.330;23.802;2023-04-26T03:42:35;99114.00;;;13.54;88.27
55675;BME280;41562;44.330;23.802;2023-04-26T03:45:03;99111.44;;;13.66;90.36
55675;BME280;41562;44.330;23.802;2023-04-26T03:47:43;99110.19;;;13.55;87.88
55675;BME280;41562;44.330;23.802;2023-04-26T03:50:11;99120.16;;;13.63;85.67
55675;BME280;41562;44.330;23.802;2023-04-26T03:52:39;99122.06;;;13.62;85.63
55675;BME280;41562;44.330;23.802;2023-04-26T03:55:07;99126.81;;;13.31;86.45
55675;BME280;41562;44.330;23.802;2023-04-26T03:57:35;99132.31;;;13.17;86.72
55675;BME280;41562;44.330;23.802;2023-04-26T04:00:04;99129.28;;;12.93;86.87
55675;BME280;41562;44.330;23.802;2023-04-26T04:02:32;99119.97;;;12.99;86.36
55675;BME280;41562;44.330;23.802;2023-04-26T04:05:00;99130.56;;;13.73;84.04
55675;BME280;41562;44.330;23.802;2023-04-26T04:07:29;99127.88;;;13.90;82.35
55675;BME280;41562;44.330;23.802;2023-04-26T04:09:57;99129.72;;;13.98;81.40
55675;BME280;41562;44.330;23.802;2023-04-26T04:12:26;99125.31;;;13.85;81.35
55675;BME280;41562;44.330;23.802;2023-04-26T04:14:54;99132.41;;;11.99;90.22
55675;BME280;41562;44.330;23.802;2023-04-26T04:17:22;99121.78;;;11.27;93.66
55675;BME280;41562;44.330;23.802;2023-04-26T04:19:50;99118.22;;;10.82;96.65
55675;BME280;41562;44.330;23.802;2023-04-26T04:22:17;99112.53;;;10.47;98.76
55675;BME280;41562;44.330;23.802;2023-04-26T04:24:44;99110.16;;;10.46;100.00
55675;BME280;41562;44.330;23.802;2023-04-26T04:27:11;99110.56;;;10.39;100.00
55675;BME280;41562;44.330;23.802;2023-04-26T04:29:39;99109.47;;;10.54;100.00
55675;BME280;41562;44.330;23.802;2023-04-26T04:32:07;99109.97;;;10.29;100.00
55675;BME280;41562;44.330;23.802;2023-04-26T04:34:34;99109.84;;;10.20;100.00
55675;BME280;41562;44.330;23.802;2023-04-26T04:37:01;99102.84;;;10.24;100.00
55675;BME280;41562;44.330;23.802;2023-04-26T04:39:29;99092.44;;;10.23;100.00
55675;BME280;41562;44.330;23.802;2023-04-26T04:41:56;99093.94;;;10.29;100.00
55675;BME280;41562;44.330;23.802;2023-04-26T04:44:24;99093.16;;;10.28;100.00
55675;BME280;41562;44.330;23.802;2023-04-26T04:46:51;99083.81;;;10.26;100.00
55675;BME280;41562;44.330;23.802;2023-04-26T04:49:19;99080.69;;;10.24;100.00
55675;BME280;41562;44.330;23.802;2023-04-26T04:51:46;99087.97;;;10.32;100.00
55675;BME280;41562;44.330;23.802;2023-04-26T04:54:15;99086.50;;;10.26;100.00
55675;BME280;41562;44.330;23.802;2023-04-26T04:56:43;99090.34;;;10.20;100.00
55675;BME280;41562;44.330;23.802;2023-04-26T04:59:11;99091.25;;;10.29;100.00
55675;BME280;41562;44.330;23.802;2023-04-26T05:01:38;99093.94;;;10.29;100.00
55675;BME280;41562;44.330;23.802;2023-04-26T05:04:06;99092.63;;;10.26;100.00
55675;BME280;41562;44.330;23.802;2023-04-26T05:06:34;99098.78;;;10.40;100.00
55675;BME280;41562;44.330;23.802;2023-04-26T05:09:02;99089.97;;;10.40;99.97
55675;BME280;41562;44.330;23.802;2023-04-26T05:11:30;99108.00;;;10.48;99.86
55675;BME280;41562;44.330;23.802;2023-04-26T05:13:58;99095.88;;;10.64;99.76
55675;BME280;41562;44.330;23.802;2023-04-26T05:16:26;99098.28;;;10.52;98.38
55675;BME280;41562;44.330;23.802;2023-04-26T05:18:55;99090.66;;;10.59;99.68
55675;BME280;41562;44.330;23.802;2023-04-26T05:21:24;99098.72;;;10.81;99.03
55675;BME280;41562;44.330;23.802;2023-04-26T05:23:52;99100.28;;;10.96;97.86
55675;BME280;41562;44.330;23.802;2023-04-26T05:26:20;99095.84;;;10.92;98.18
55675;BME280;41562;44.330;23.802;2023-04-26T05:28:48;99108.31;;;10.96;98.59
55675;BME280;41562;44.330;23.802;2023-04-26T05:31:16;99108.94;;;10.93;98.43
55675;BME280;41562;44.330;23.802;2023-04-26T05:33:44;99108.66;;;11.17;97.54
55675;BME280;41562;44.330;23.802;2023-04-26T05:36:11;99113.38;;;11.20;95.88
55675;BME280;41562;44.330;23.802;2023-04-26T05:38:38;99116.31;;;11.32;96.68
55675;BME280;41562;44.330;23.802;2023-04-26T05:41:06;99116.81;;;11.34;95.71
55675;BME280;41562;44.330;23.802;2023-04-26T05:43:34;99124.53;;;11.58;94.70
55675;BME280;41562;44.330;23.802;2023-04-26T05:46:01;99124.97;;;11.51;94.16
55675;BME280;41562;44.330;23.802;2023-04-26T05:48:29;99128.50;;;11.60;94.75
55675;BME280;41562;44.330;23.802;2023-04-26T05:50:56;99126.91;;;11.59;94.23
55675;BME280;41562;44.330;23.802;2023-04-26T05:53:23;99134.88;;;11.51;95.08
55675;BME280;41562;44.330;23.802;2023-04-26T05:55:50;99136.38;;;11.79;93.31
55675;BME280;41562;44.330;23.802;2023-04-26T05:58:18;99136.19;;;11.98;92.36
55675;BME280;41562;44.330;23.802;2023-04-26T06:00:46;99152.84;;;12.17;91.18
55675;BME280;41562;44.330;23.802;2023-04-26T06:03:13;99144.25;;;12.77;89.53
55675;BME280;41562;44.330;23.802;2023-04-26T06:05:41;99145.19;;;12.81;87.22
55675;BME280;41562;44.330;23.802;2023-04-26T06:08:08;99141.97;;;13.27;86.61
55675;BME280;41562;44.330;23.802;2023-04-26T06:10:36;99145.13;;;13.38;84.63
55675;BME280;41562;44.330;23.802;2023-04-26T06:13:03;99143.97;;;13.04;83.99
55675;BME280;41562;44.330;23.802;2023-04-26T06:15:30;99156.50;;;13.43;83.49
55675;BME280;41562;44.330;23.802;2023-04-26T06:17:58;99146.84;;;13.68;83.39
55675;BME280;41562;44.330;23.802;2023-04-26T06:20:25;99150.91;;;14.00;81.81
55675;BME280;41562;44.330;23.802;2023-04-26T06:22:54;99154.94;;;14.32;78.37
55675;BME280;41562;44.330;23.802;2023-04-26T06:25:22;99151.56;;;14.52;78.09
55675;BME280;41562;44.330;23.802;2023-04-26T06:27:49;99152.66;;;14.51;78.44
55675;BME280;41562;44.330;23.802;2023-04-26T06:30:17;99155.94;;;14.65;78.14
55675;BME280;41562;44.330;23.802;2023-04-26T06:32:44;99156.78;;;15.07;77.43
55675;BME280;41562;44.330;23.802;2023-04-26T06:35:11;99159.88;;;14.97;76.27
55675;BME280;41562;44.330;23.802;2023-04-26T06:37:39;99157.66;;;15.20;81.38
55675;BME280;41562;44.330;23.802;2023-04-26T06:40:07;99162.97;;;15.49;74.78
55675;BME280;41562;44.330;23.802;2023-04-26T06:42:35;99156.91;;;15.61;75.76
55675;BME280;41562;44.330;23.802;2023-04-26T06:45:03;99160.66;;;15.81;76.23
55675;BME280;41562;44.330;23.802;2023-04-26T06:47:31;99159.75;;;16.09;73.16
55675;BME280;41562;44.330;23.802;2023-04-26T06:49:59;99167.09;;;16.21;73.05
55675;BME280;41562;44.330;23.802;2023-04-26T06:52:27;99167.00;;;16.30;71.92
55675;BME280;41562;44.330;23.802;2023-04-26T06:54:54;99179.22;;;16.27;70.81
55675;BME280;41562;44.330;23.802;2023-04-26T06:57:23;99169.28;;;16.76;69.66
55675;BME280;41562;44.330;23.802;2023-04-26T06:59:51;99169.66;;;16.87;68.29
55675;BME280;41562;44.330;23.802;2023-04-26T07:02:18;99172.28;;;17.36;67.76
55675;BME280;41562;44.330;23.802;2023-04-26T07:04:46;99170.06;;;17.65;64.72
55675;BME280;41562;44.330;23.802;2023-04-26T07:07:14;99167.91;;;17.31;67.52
55675;BME280;41562;44.330;23.802;2023-04-26T07:09:43;99173.31;;;17.59;64.76
55675;BME280;41562;44.330;23.802;2023-04-26T07:12:11;99165.25;;;17.47;66.16
55675;BME280;41562;44.330;23.802;2023-04-26T07:14:39;99170.06;;;17.93;67.28
55675;BME280;41562;44.330;23.802;2023-04-26T07:17:06;99169.34;;;17.81;64.56
55675;BME280;41562;44.330;23.802;2023-04-26T07:19:33;99161.34;;;17.72;66.81
55675;BME280;41562;44.330;23.802;2023-04-26T07:22:01;99174.38;;;18.10;64.77
55675;BME280;41562;44.330;23.802;2023-04-26T07:24:29;99171.69;;;18.41;63.29
55675;BME280;41562;44.330;23.802;2023-04-26T07:26:56;99175.88;;;18.23;62.54
55675;BME280;41562;44.330;23.802;2023-04-26T07:29:24;99169.25;;;18.36;61.93
55675;BME280;41562;44.330;23.802;2023-04-26T07:31:52;99166.13;;;18.50;64.16
55675;BME280;41562;44.330;23.802;2023-04-26T07:34:20;99171.97;;;18.68;62.38
55675;BME280;41562;44.330;23.802;2023-04-26T07:36:47;99178.16;;;19.00;60.45
55675;BME280;41562;44.330;23.802;2023-04-26T07:39:15;99173.25;;;19.05;58.74
55675;BME280;41562;44.330;23.802;2023-04-26T07:41:42;99175.28;;;19.27;57.15
55675;BME280;41562;44.330;23.802;2023-04-26T07:44:10;99174.66;;;19.34;55.72
55675;BME280;41562;44.330;23.802;2023-04-26T07:46:37;99173.59;;;19.04;57.56
55675;BME280;41562;44.330;23.802;2023-04-26T07:49:05;99180.47;;;19.17;57.00
55675;BME280;41562;44.330;23.802;2023-04-26T07:51:34;99172.03;;;19.03;55.23
55675;BME280;41562;44.330;23.802;2023-04-26T07:54:01;99170.91;;;18.41;58.10
55675;BME280;41562;44.330;23.802;2023-04-26T07:56:29;99169.72;;;17.95;58.27
55675;BME280;41562;44.330;23.802;2023-04-26T07:58:56;99175.22;;;17.98;58.75
55675;BME280;41562;44.330;23.802;2023-04-26T08:01:24;99171.63;;;18.38;57.95
55675;BME280;41562;44.330;23.802;2023-04-26T08:03:52;99177.13;;;18.88;56.06
55675;BME280;41562;44.330;23.802;2023-04-26T08:06:20;99176.34;;;19.23;54.79
55675;BME280;41562;44.330;23.802;2023-04-26T08:08:47;99180.78;;;19.31;54.46
55675;BME280;41562;44.330;23.802;2023-04-26T08:11:15;99179.41;;;18.86;53.66
55675;BME280;41562;44.330;23.802;2023-04-26T08:13:43;99178.44;;;18.04;56.18
55675;BME280;41562;44.330;23.802;2023-04-26T08:16:10;99185.38;;;18.01;57.16
55675;BME280;41562;44.330;23.802;2023-04-26T08:18:37;99185.75;;;18.47;57.24
55675;BME280;41562;44.330;23.802;2023-04-26T08:21:05;99184.09;;;18.27;56.03
55675;BME280;41562;44.330;23.802;2023-04-26T08:23:33;99177.91;;;18.42;57.23
55675;BME280;41562;44.330;23.802;2023-04-26T08:26:01;99178.03;;;18.18;58.07
55675;BME280;41562;44.330;23.802;2023-04-26T08:28:28;99184.06;;;18.11;59.37
55675;BME280;41562;44.330;23.802;2023-04-26T08:30:57;99189.75;;;18.22;57.43
55675;BME280;41562;44.330;23.802;2023-04-26T08:33:24;99188.97;;;18.53;55.57
55675;BME280;41562;44.330;23.802;2023-04-26T08:35:52;99184.78;;;18.24;53.30
55675;BME280;41562;44.330;23.802;2023-04-26T08:38:19;99181.41;;;18.90;53.80
55675;BME280;41562;44.330;23.802;2023-04-26T08:40:47;99189.84;;;19.04;53.08
55675;BME280;41562;44.330;23.802;2023-04-26T08:43:14;99185.09;;;18.81;52.52
55675;BME280;41562;44.330;23.802;2023-04-26T08:45:44;99189.34;;;18.51;52.26
55675;BME280;41562;44.330;23.802;2023-04-26T08:48:12;99191.69;;;18.37;53.62
55675;BME280;41562;44.330;23.802;2023-04-26T08:50:42;99190.13;;;18.36;52.55
55675;BME280;41562;44.330;23.802;2023-04-26T08:53:13;99186.63;;;18.20;54.84
55675;BME280;41562;44.330;23.802;2023-04-26T08:55:41;99190.25;;;18.12;55.29
55675;BME280;41562;44.330;23.802;2023-04-26T08:58:13;99186.81;;;18.27;55.94
55675;BME280;41562;44.330;23.802;2023-04-26T09:00:43;99188.38;;;19.06;53.89
55675;BME280;41562;44.330;23.802;2023-04-26T09:03:11;99186.44;;;19.42;52.16
55675;BME280;41562;44.330;23.802;2023-04-26T09:05:39;99190.38;;;19.44;52.59
55675;BME280;41562;44.330;23.802;2023-04-26T09:08:07;99191.00;;;19.73;54.13
55675;BME280;41562;44.330;23.802;2023-04-26T09:10:35;99187.25;;;19.81;50.88
55675;BME280;41562;44.330;23.802;2023-04-26T09:13:02;99195.66;;;20.14;51.06
55675;BME280;41562;44.330;23.802;2023-04-26T09:15:29;99195.97;;;19.90;48.99
55675;BME280;41562;44.330;23.802;2023-04-26T09:18:14;99194.63;;;20.41;50.49
55675;BME280;41562;44.330;23.802;2023-04-26T09:20:44;99195.00;;;20.21;49.52
55675;BME280;41562;44.330;23.802;2023-04-26T09:23:12;99207.53;;;20.06;48.85
55675;BME280;41562;44.330;23.802;2023-04-26T09:25:39;99197.47;;;19.87;48.71
55675;BME280;41562;44.330;23.802;2023-04-26T09:28:21;99199.94;;;20.34;48.98
55675;BME280;41562;44.330;23.802;2023-04-26T09:30:49;99203.13;;;20.63;48.22
55675;BME280;41562;44.330;23.802;2023-04-26T09:33:16;99202.56;;;20.76;46.72
55675;BME280;41562;44.330;23.802;2023-04-26T09:35:44;99203.59;;;20.91;47.63
55675;BME280;41562;44.330;23.802;2023-04-26T09:38:17;99200.59;;;20.73;47.29
55675;BME280;41562;44.330;23.802;2023-04-26T09:40:49;99193.78;;;20.60;46.62
55675;BME280;41562;44.330;23.802;2023-04-26T09:43:18;99187.09;;;21.03;50.71
55675;BME280;41562;44.330;23.802;2023-04-26T09:45:52;99189.50;;;21.35;46.01
55675;BME280;41562;44.330;23.802;2023-04-26T09:48:30;99189.13;;;21.36;45.90
55675;BME280;41562;44.330;23.802;2023-04-26T09:53:31;99186.84;;;20.89;40.66
55675;BME280;41562;44.330;23.802;2023-04-26T09:58:39;99175.53;;;20.83;42.64
55675;BME280;41562;44.330;23.802;2023-04-26T10:01:21;99180.38;;;20.71;42.30
55675;BME280;41562;44.330;23.802;2023-04-26T10:03:48;99175.59;;;20.64;43.25
55675;BME280;41562;44.330;23.802;2023-04-26T10:06:16;99175.16;;;20.62;42.63
55675;BME280;41562;44.330;23.802;2023-04-26T10:08:44;99178.75;;;20.24;41.93
55675;BME280;41562;44.330;23.802;2023-04-26T10:11:12;99180.63;;;20.39;42.98
55675;BME280;41562;44.330;23.802;2023-04-26T10:13:40;99178.56;;;20.56;43.68
55675;BME280;41562;44.330;23.802;2023-04-26T10:16:09;99177.72;;;20.52;41.66
55675;BME280;41562;44.330;23.802;2023-04-26T10:18:36;99183.03;;;20.44;42.01
55675;BME280;41562;44.330;23.802;2023-04-26T10:21:15;99184.22;;;20.70;41.03
55675;BME280;41562;44.330;23.802;2023-04-26T10:23:44;99177.47;;;20.37;40.93
55675;BME280;41562;44.330;23.802;2023-04-26T10:29:13;99187.19;;;20.38;41.17
55675;BME280;41562;44.330;23.802;2023-04-26T10:34:31;99178.47;;;20.49;44.30
55675;BME280;41562;44.330;23.802;2023-04-26T10:37:06;99179.59;;;20.48;42.90
55675;BME280;41562;44.330;23.802;2023-04-26T10:39:34;99172.84;;;19.77;41.89
55675;BME280;41562;44.330;23.802;2023-04-26T10:42:21;99193.06;;;20.21;43.72
55675;BME280;41562;44.330;23.802;2023-04-26T10:44:54;99182.38;;;20.09;44.23
55675;BME280;41562;44.330;23.802;2023-04-26T10:49:51;99185.22;;;19.04;42.38
55675;BME280;41562;44.330;23.802;2023-04-26T10:52:21;99184.75;;;19.18;45.48
55675;BME280;41562;44.330;23.802;2023-04-26T10:54:53;99194.56;;;19.07;44.33
55675;BME280;41562;44.330;23.802;2023-04-26T10:57:53;99195.69;;;18.71;43.45
55675;BME280;41562;44.330;23.802;2023-04-26T11:00:31;99194.63;;;18.75;43.12
55675;BME280;41562;44.330;23.802;2023-04-26T11:03:04;99190.66;;;18.73;44.29
55675;BME280;41562;44.330;23.802;2023-04-26T11:05:50;99191.28;;;18.66;42.53
55675;BME280;41562;44.330;23.802;2023-04-26T11:13:34;99201.50;;;18.73;45.12
55675;BME280;41562;44.330;23.802;2023-04-26T11:16:03;99202.97;;;19.02;45.00
55675;BME280;41562;44.330;23.802;2023-04-26T11:18:38;99201.56;;;19.08;43.40
55675;BME280;41562;44.330;23.802;2023-04-26T11:21:09;99205.75;;;19.21;42.33
55675;BME280;41562;44.330;23.802;2023-04-26T11:23:36;99205.75;;;19.05;42.25
55675;BME280;41562;44.330;23.802;2023-04-26T11:26:10;99205.28;;;19.35;43.39
55675;BME280;41562;44.330;23.802;2023-04-26T11:28:46;99205.94;;;19.66;43.64
55675;BME280;41562;44.330;23.802;2023-04-26T11:31:17;99210.88;;;19.80;43.82
55675;BME280;41562;44.330;23.802;2023-04-26T11:33:47;99206.28;;;19.11;42.79
55675;BME280;41562;44.330;23.802;2023-04-26T11:36:17;99210.94;;;19.29;42.85
55675;BME280;41562;44.330;23.802;2023-04-26T11:38:45;99214.81;;;19.63;44.50
55675;BME280;41562;44.330;23.802;2023-04-26T11:41:16;99205.31;;;19.19;42.65
55675;BME280;41562;44.330;23.802;2023-04-26T11:43:44;99207.25;;;19.03;42.83
55675;BME280;41562;44.330;23.802;2023-04-26T11:46:11;99221.81;;;19.64;45.13
55675;BME280;41562;44.330;23.802;2023-04-26T11:48:39;99213.53;;;19.77;44.27
55675;BME280;41562;44.330;23.802;2023-04-26T11:51:13;99210.81;;;19.42;44.18
55675;BME280;41562;44.330;23.802;2023-04-26T11:53:52;99218.13;;;19.73;43.65
55675;BME280;41562;44.330;23.802;2023-04-26T11:56:20;99205.06;;;19.78;41.51
55675;BME280;41562;44.330;23.802;2023-04-26T11:58:54;99209.81;;;20.23;44.21
55675;BME280;41562;44.330;23.802;2023-04-26T12:01:24;99216.63;;;20.17;43.20
55675;BME280;41562;44.330;23.802;2023-04-26T12:03:58;99211.34;;;20.24;41.08
55675;BME280;41562;44.330;23.802;2023-04-26T12:06:31;99215.34;;;20.30;41.84
55675;BME280;41562;44.330;23.802;2023-04-26T12:09:04;99217.09;;;19.81;39.96
55675;BME280;41562;44.330;23.802;2023-04-26T12:11:34;99218.63;;;19.97;41.84
55675;BME280;41562;44.330;23.802;2023-04-26T12:14:05;99214.72;;;20.18;42.93
55675;BME280;41562;44.330;23.802;2023-04-26T12:16:34;99217.53;;;19.63;41.02
55675;BME280;41562;44.330;23.802;2023-04-26T12:19:08;99215.91;;;19.43;42.40
55675;BME280;41562;44.330;23.802;2023-04-26T12:21:42;99211.91;;;19.53;43.94
55675;BME280;41562;44.330;23.802;2023-04-26T12:24:21;99215.69;;;19.17;42.45
55675;BME280;41562;44.330;23.802;2023-04-26T12:26:54;99212.69;;;19.03;42.39
55675;BME280;41562;44.330;23.802;2023-04-26T12:29:25;99212.53;;;19.46;45.11
55675;BME280;41562;44.330;23.802;2023-04-26T12:31:55;99214.50;;;19.49;42.51
55675;BME280;41562;44.330;23.802;2023-04-26T12:34:27;99212.53;;;19.65;43.48
55675;BME280;41562;44.330;23.802;2023-04-26T12:36:58;99208.94;;;19.61;40.61
55675;BME280;41562;44.330;23.802;2023-04-26T12:39:25;99208.97;;;19.81;40.18
55675;BME280;41562;44.330;23.802;2023-04-26T12:41:59;99211.38;;;19.86;41.18
55675;BME280;41562;44.330;23.802;2023-04-26T12:44:29;99201.94;;;19.99;41.96
55675;BME280;41562;44.330;23.802;2023-04-26T12:46:57;99205.66;;;20.29;43.34
55675;BME280;41562;44.330;23.802;2023-04-26T12:49:24;99210.31;;;20.10;42.00
55675;BME280;41562;44.330;23.802;2023-04-26T12:51:52;99201.53;;;19.58;42.06
55675;BME280;41562;44.330;23.802;2023-04-26T12:54:19;99210.81;;;20.15;44.96
55675;BME280;41562;44.330;23.802;2023-04-26T12:56:50;99209.22;;;20.33;43.37
55675;BME280;41562;44.330;23.802;2023-04-26T12:59:17;99211.91;;;20.53;43.59
55675;BME280;41562;44.330;23.802;2023-04-26T13:01:48;99213.09;;;20.32;45.57
55675;BME280;41562;44.330;23.802;2023-04-26T13:04:16;99216.00;;;20.66;45.67
55675;BME280;41562;44.330;23.802;2023-04-26T13:06:47;99219.06;;;20.41;42.17
55675;BME280;41562;44.330;23.802;2023-04-26T13:09:21;99212.22;;;20.28;43.26
55675;BME280;41562;44.330;23.802;2023-04-26T13:11:56;99217.81;;;19.97;43.90
55675;BME280;41562;44.330;23.802;2023-04-26T13:14:24;99217.84;;;19.78;44.70
55675;BME280;41562;44.330;23.802;2023-04-26T13:16:54;99216.41;;;19.84;43.61
55675;BME280;41562;44.330;23.802;2023-04-26T13:19:24;99220.72;;;19.50;44.19
55675;BME280;41562;44.330;23.802;2023-04-26T13:21:52;99220.81;;;19.53;43.64
55675;BME280;41562;44.330;23.802;2023-04-26T13:24:19;99227.94;;;19.61;43.36
55675;BME280;41562;44.330;23.802;2023-04-26T13:26:46;99233.09;;;19.86;43.59